createdAt,value
2022-08-28T00:04:14.706Z,58.52
2022-08-28T00:06:55.634Z,59.53
2022-08-28T00:09:47.572Z,60.23
2022-08-28T00:12:40.653Z,65.00
2022-08-28T00:15:52.706Z,64.48
2022-08-28T00:18:24.755Z,62.76
2022-08-28T00:20:54.004Z,61.83
2022-08-28T00:23:42.957Z,61.33
2022-08-28T00:29:55.350Z,60.59
2022-08-28T00:32:53.060Z,60.85
2022-08-28T00:35:24.090Z,60.83
2022-08-28T00:37:52.928Z,60.36
2022-08-28T00:40:28.827Z,59.53
2022-08-28T00:43:03.618Z,57.75
2022-08-28T00:45:37.272Z,58.52
2022-08-28T00:48:18.325Z,60.52
2022-08-28T00:51:10.570Z,64.83
2022-08-28T00:53:43.314Z,64.33
2022-08-28T00:56:17.877Z,61.92
2022-08-28T00:58:50.438Z,60.80
2022-08-28T01:01:19.134Z,61.28
2022-08-28T01:03:48.903Z,60.59
2022-08-28T01:06:21.084Z,61.40
2022-08-28T01:08:54.844Z,61.46
2022-08-28T01:11:26.548Z,61.11
2022-08-28T01:14:01.750Z,61.33
2022-08-28T01:16:48.274Z,60.94
2022-08-28T01:23:15.855Z,59.77
2022-08-28T01:23:21.492Z,59.98
2022-08-28T01:25:54.352Z,58.64
2022-08-28T01:28:39.925Z,59.40
2022-08-28T01:33:06.325Z,61.53
2022-08-28T01:35:07.714Z,66.52
2022-08-28T01:38:06.287Z,64.26
2022-08-28T01:40:46.728Z,62.89
2022-08-28T01:43:36.786Z,62.11
2022-08-28T01:46:11.990Z,61.99
2022-08-28T01:48:45.651Z,61.03
2022-08-28T01:51:16.360Z,60.69
2022-08-28T01:53:46.672Z,60.47
2022-08-28T01:56:17.776Z,59.99
2022-08-28T01:58:48.386Z,59.28
2022-08-28T02:01:22.283Z,59.94
2022-08-28T02:03:53.224Z,62.10
2022-08-28T02:06:25.864Z,65.90
2022-08-28T02:08:55.707Z,64.55
2022-08-28T02:11:32.244Z,63.46
2022-08-28T02:14:01.860Z,62.44
2022-08-28T02:16:30.920Z,61.95
2022-08-28T02:19:01.735Z,61.18
2022-08-28T02:21:32.288Z,60.64
2022-08-28T02:24:01.253Z,60.32
2022-08-28T02:26:32.379Z,60.23
2022-08-28T02:29:01.295Z,60.07
2022-08-28T02:31:33.658Z,58.66
2022-08-28T02:34:02.246Z,59.70
2022-08-28T02:36:30.872Z,61.85
2022-08-28T02:38:59.874Z,65.21
2022-08-28T02:41:28.712Z,64.54
2022-08-28T02:44:00.634Z,62.84
2022-08-28T02:46:30.562Z,61.88
2022-08-28T02:48:59.201Z,61.18
2022-08-28T02:51:33.576Z,60.75
2022-08-28T02:54:02.335Z,60.67
2022-08-28T02:56:31.431Z,61.10
2022-08-28T02:58:59.766Z,61.43
2022-08-28T03:01:29.575Z,60.95
2022-08-28T03:03:58.395Z,60.75
2022-08-28T03:06:26.800Z,60.52
2022-08-28T03:08:55.764Z,60.26
2022-08-28T03:11:25.293Z,59.78
2022-08-28T03:13:53.978Z,58.88
2022-08-28T03:16:22.292Z,59.60
2022-08-28T03:18:51.257Z,61.23
2022-08-28T03:21:21.865Z,65.18
2022-08-28T03:23:50.162Z,65.09
2022-08-28T03:26:20.687Z,63.81
2022-08-28T03:28:52.283Z,63.75
2022-08-28T03:31:26.943Z,62.69
2022-08-28T03:33:58.075Z,61.91
2022-08-28T03:36:28.920Z,61.10
2022-08-28T03:38:59.396Z,61.24
2022-08-28T03:41:30.608Z,61.42
2022-08-28T03:44:01.150Z,60.94
2022-08-28T03:46:35.130Z,61.36
2022-08-28T03:49:06.910Z,61.24
2022-08-28T03:51:35.549Z,61.35
2022-08-28T03:54:06.342Z,60.66
2022-08-28T03:56:34.659Z,60.14
2022-08-28T03:59:05.414Z,59.65
2022-08-28T04:01:35.200Z,58.11
2022-08-28T04:04:04.419Z,58.99
2022-08-28T04:06:32.867Z,60.90
2022-08-28T04:09:04.783Z,64.33
2022-08-28T04:11:38.536Z,63.71
2022-08-28T04:14:09.716Z,61.71
2022-08-28T04:16:38.687Z,60.10
2022-08-28T04:19:07.597Z,58.57
2022-08-28T04:21:35.815Z,58.87
2022-08-28T04:24:09.038Z,60.66
2022-08-28T04:26:37.966Z,64.67
2022-08-28T04:29:07.688Z,64.19
2022-08-28T04:31:37.126Z,62.64
2022-08-28T04:34:08.862Z,61.52
2022-08-28T04:36:38.059Z,60.78
2022-08-28T04:39:08.841Z,60.45
2022-08-28T04:41:38.777Z,59.81
2022-08-28T04:44:07.867Z,59.64
2022-08-28T04:46:39.585Z,58.15
2022-08-28T04:49:08.142Z,59.31
2022-08-28T04:51:42.118Z,59.95
2022-08-28T04:54:11.070Z,64.43
2022-08-28T04:56:40.884Z,63.89
2022-08-28T04:59:11.826Z,61.96
2022-08-28T05:01:41.749Z,61.14
2022-08-28T05:04:11.731Z,60.48
2022-08-28T05:06:46.495Z,60.17
2022-08-28T05:09:19.437Z,59.42
2022-08-28T05:11:49.509Z,58.58
2022-08-28T05:14:17.790Z,59.82
2022-08-28T05:16:58.256Z,64.36
2022-08-28T05:19:30.014Z,64.23
2022-08-28T05:21:59.430Z,62.93
2022-08-28T05:24:27.686Z,61.47
2022-08-28T05:26:58.804Z,60.78
2022-08-28T05:29:27.696Z,60.12
2022-08-28T05:31:56.243Z,59.67
2022-08-28T05:34:27.238Z,58.13
2022-08-28T05:36:55.693Z,59.32
2022-08-28T05:39:24.038Z,60.74
2022-08-28T05:41:52.540Z,64.37
2022-08-28T05:44:21.332Z,63.96
2022-08-28T05:46:51.073Z,62.05
2022-08-28T05:49:21.045Z,61.91
2022-08-28T05:51:51.357Z,61.42
2022-08-28T05:54:19.750Z,60.79
2022-08-28T05:56:49.725Z,60.19
2022-08-28T05:59:18.189Z,59.93
2022-08-28T06:01:49.335Z,59.57
2022-08-28T06:04:25.889Z,58.45
2022-08-28T06:06:54.606Z,59.40
2022-08-28T06:09:30.277Z,61.39
2022-08-28T06:12:02.168Z,65.33
2022-08-28T06:14:33.039Z,64.89
2022-08-28T06:17:04.101Z,63.33
2022-08-28T06:19:37.216Z,61.87
2022-08-28T06:22:12.239Z,60.78
2022-08-28T06:24:41.257Z,59.95
2022-08-28T06:27:10.036Z,59.61
2022-08-28T06:29:39.893Z,58.68
2022-08-28T06:32:10.072Z,59.38
2022-08-28T06:34:38.341Z,61.62
2022-08-28T06:37:12.364Z,64.77
2022-08-28T06:39:41.668Z,64.57
2022-08-28T06:42:10.717Z,63.29
2022-08-28T06:44:40.413Z,62.09
2022-08-28T06:47:09.040Z,61.49
2022-08-28T06:49:37.377Z,61.06
2022-08-28T06:52:06.178Z,60.99
2022-08-28T06:55:02.538Z,60.82
2022-08-28T06:58:02.572Z,60.61
2022-08-28T07:05:54.175Z,60.13
2022-08-28T07:11:30.314Z,58.70
2022-08-28T07:14:13.229Z,60.59
2022-08-28T07:16:56.407Z,64.05
2022-08-28T07:19:28.914Z,63.56
2022-08-28T07:21:59.524Z,61.85
2022-08-28T07:24:29.409Z,60.84
2022-08-28T07:26:58.212Z,60.23
2022-08-28T07:29:26.427Z,59.14
2022-08-28T07:31:56.586Z,59.89
2022-08-28T07:34:27.238Z,60.78
2022-08-28T07:37:03.786Z,64.46
2022-08-28T07:39:31.923Z,64.80
2022-08-28T07:42:00.269Z,62.66
2022-08-28T07:44:47.155Z,61.28
2022-08-28T07:47:20.411Z,59.91
2022-08-28T07:49:48.554Z,57.78
2022-08-28T07:52:17.651Z,57.93
2022-08-28T07:54:45.727Z,58.33
2022-08-28T07:57:15.224Z,59.65
2022-08-28T07:59:43.874Z,63.05
2022-08-28T08:02:12.363Z,62.06
2022-08-28T08:04:40.745Z,58.50
2022-08-28T08:07:09.921Z,57.36
2022-08-28T08:09:41.804Z,59.30
2022-08-28T08:12:10.572Z,60.56
2022-08-28T08:14:40.550Z,63.04
2022-08-28T08:17:09.732Z,62.77
2022-08-28T08:19:41.134Z,59.92
2022-08-28T08:22:10.489Z,58.24
2022-08-28T08:24:39.906Z,58.24
2022-08-28T08:27:11.575Z,60.28
2022-08-28T08:29:40.134Z,60.19
2022-08-28T08:32:10.771Z,63.48
2022-08-28T08:34:41.505Z,62.17
2022-08-28T08:37:10.705Z,59.60
2022-08-28T08:39:39.815Z,57.59
2022-08-28T08:42:29.250Z,58.85
2022-08-28T08:45:12.921Z,58.98
2022-08-28T08:47:48.291Z,60.87
2022-08-28T08:50:21.706Z,63.02
2022-08-28T08:53:07.364Z,63.15
2022-08-28T08:55:51.404Z,59.31
2022-08-28T08:58:33.501Z,57.48
2022-08-28T09:01:08.565Z,58.16
2022-08-28T09:03:53.704Z,59.24
2022-08-28T09:06:50.433Z,61.65
2022-08-28T09:09:31.043Z,63.54
2022-08-28T09:12:04.002Z,61.02
2022-08-28T09:14:43.949Z,58.64
2022-08-28T09:17:16.373Z,58.47
2022-08-28T09:19:57.649Z,59.68
2022-08-28T09:22:27.302Z,61.08
2022-08-28T09:24:55.650Z,63.98
2022-08-28T09:27:50.437Z,62.47
2022-08-28T09:30:32.331Z,58.29
2022-08-28T09:33:01.490Z,58.57
2022-08-28T09:35:35.185Z,58.58
2022-08-28T09:38:23.408Z,61.14
2022-08-28T09:41:28.977Z,60.65
2022-08-28T09:43:58.790Z,60.87
2022-08-28T09:46:32.382Z,63.14
2022-08-28T09:52:45.358Z,56.81
2022-08-28T09:56:27.230Z,57.63
2022-08-28T09:59:38.360Z,58.52
2022-08-28T10:02:40.982Z,60.65
2022-08-28T10:05:17.829Z,60.35
2022-08-28T10:08:05.801Z,61.60
2022-08-28T10:10:50.493Z,63.18
2022-08-28T10:13:53.822Z,61.53
2022-08-28T10:16:40.517Z,58.13
2022-08-28T10:19:36.265Z,57.36
2022-08-28T10:22:15.075Z,58.38
2022-08-28T10:25:00.656Z,59.46
2022-08-28T10:27:29.335Z,59.88
2022-08-28T10:30:13.205Z,61.37
2022-08-28T10:33:48.045Z,61.73
2022-08-28T10:36:33.418Z,65.54
2022-08-28T10:39:32.170Z,61.96
2022-08-28T10:42:08.613Z,58.03
2022-08-28T10:44:58.018Z,57.60
2022-08-28T10:47:29.939Z,58.86
2022-08-28T10:50:02.959Z,60.19
2022-08-28T10:52:40.201Z,61.76
2022-08-28T10:55:32.494Z,66.12
2022-08-28T10:58:24.343Z,64.24
2022-08-28T11:01:05.460Z,62.30
2022-08-28T11:03:42.611Z,60.16
2022-08-28T11:06:21.716Z,59.22
2022-08-28T11:08:53.810Z,60.84
2022-08-28T11:12:01.594Z,64.30
2022-08-28T11:14:47.901Z,64.19
2022-08-28T11:17:23.141Z,62.11
2022-08-28T11:19:52.533Z,61.93
2022-08-28T11:22:23.049Z,60.63
2022-08-28T11:25:26.723Z,61.34
2022-08-28T11:28:41.925Z,60.19
2022-08-28T11:31:28.855Z,59.73
2022-08-28T11:34:00.247Z,61.86
2022-08-28T11:36:29.982Z,65.13
2022-08-28T11:39:05.232Z,64.64
2022-08-28T11:41:59.659Z,61.94
2022-08-28T11:44:48.420Z,60.98
2022-08-28T11:47:43.938Z,60.49
2022-08-28T11:50:25.827Z,60.26
2022-08-28T11:53:02.490Z,58.28
2022-08-28T11:56:01.695Z,58.86
2022-08-28T11:58:35.475Z,60.55
2022-08-28T12:01:09.299Z,63.92
2022-08-28T12:03:40.869Z,63.43
2022-08-28T12:06:10.601Z,60.96
2022-08-28T12:09:02.608Z,58.31
2022-08-28T12:11:41.378Z,58.81
2022-08-28T12:14:33.122Z,59.15
2022-08-28T12:17:05.073Z,63.95
2022-08-28T12:19:51.227Z,63.52
2022-08-28T12:22:28.845Z,61.03
2022-08-28T12:25:00.066Z,59.64
2022-08-28T12:27:39.715Z,57.16
2022-08-28T12:30:10.375Z,57.75
2022-08-28T12:32:47.570Z,59.27
2022-08-28T12:35:45.591Z,61.35
2022-08-28T12:38:21.627Z,64.55
2022-08-28T12:40:51.373Z,62.75
2022-08-28T12:43:46.967Z,60.81
2022-08-28T12:46:21.805Z,59.82
2022-08-28T12:48:53.868Z,58.22
2022-08-28T12:51:29.220Z,59.46
2022-08-28T12:54:01.594Z,61.79
2022-08-28T12:56:34.375Z,65.59
2022-08-28T12:59:27.217Z,64.63
2022-08-28T13:02:07.289Z,62.85
2022-08-28T13:04:42.941Z,61.27
2022-08-28T13:07:21.957Z,61.34
2022-08-28T13:09:52.984Z,59.99
2022-08-28T13:12:54.871Z,59.11
2022-08-28T13:15:44.977Z,61.44
2022-08-28T13:18:49.992Z,64.54
2022-08-28T13:21:32.832Z,64.88
2022-08-28T13:24:23.311Z,63.01
2022-08-28T13:27:20.959Z,62.12
2022-08-28T13:29:59.963Z,62.12
2022-08-28T13:32:42.277Z,62.34
2022-08-28T13:35:23.296Z,62.33
2022-08-28T13:38:00.238Z,61.26
2022-08-28T13:43:23.498Z,60.36
2022-08-28T13:45:53.167Z,60.64
2022-08-28T13:48:24.456Z,61.24
2022-08-28T13:50:59.684Z,60.74
2022-08-28T13:53:28.168Z,60.01
2022-08-28T13:55:58.608Z,58.90
2022-08-28T13:58:28.381Z,60.14
2022-08-28T14:01:00.588Z,63.45
2022-08-28T14:03:44.266Z,63.89
2022-08-28T14:07:37.727Z,62.88
2022-08-28T14:10:16.156Z,62.28
2022-08-28T14:12:47.878Z,61.70
2022-08-28T14:15:21.135Z,61.67
2022-08-28T14:17:52.178Z,61.81
2022-08-28T14:20:23.187Z,61.48
2022-08-28T14:23:02.105Z,61.68
2022-08-28T14:25:39.210Z,60.75
2022-08-28T14:28:41.913Z,60.92
2022-08-28T14:32:50.620Z,60.43
2022-08-28T14:35:21.112Z,62.46
2022-08-28T14:37:49.669Z,64.50
2022-08-28T14:40:18.066Z,63.67
2022-08-28T14:42:46.416Z,62.58
2022-08-28T14:45:14.418Z,62.37
2022-08-28T14:47:43.404Z,61.71
2022-08-28T14:50:11.414Z,62.06
2022-08-28T14:52:40.462Z,61.61
2022-08-28T14:55:11.241Z,61.95
2022-08-28T14:57:39.828Z,61.49
2022-08-28T15:00:16.242Z,61.34
2022-08-28T15:02:44.901Z,61.33
2022-08-28T15:05:13.272Z,61.37
2022-08-28T15:07:41.742Z,61.13
2022-08-28T15:10:13.163Z,61.52
2022-08-28T15:12:41.266Z,61.28
2022-08-28T15:15:12.073Z,61.02
2022-08-28T15:17:40.413Z,61.16
2022-08-28T15:20:10.796Z,60.78
2022-08-28T15:22:38.858Z,60.83
2022-08-28T15:25:07.749Z,60.31
2022-08-28T15:27:36.269Z,60.45
2022-08-28T15:30:06.557Z,60.77
2022-08-28T15:32:34.797Z,61.15
2022-08-28T15:35:02.978Z,60.67
2022-08-28T15:37:31.747Z,61.01
2022-08-28T15:40:19.438Z,60.65
2022-08-28T15:43:01.652Z,60.79
2022-08-28T15:48:56.312Z,61.80
2022-08-28T15:52:02.978Z,61.15
2022-08-28T15:55:18.367Z,61.14
2022-08-28T15:58:30.704Z,61.19
2022-08-28T16:04:35.651Z,61.20
2022-08-28T16:21:04.057Z,61.16
2022-08-28T16:23:33.709Z,62.67
2022-08-28T16:26:03.008Z,64.70
2022-08-28T16:28:31.232Z,63.65
2022-08-28T16:31:02.968Z,62.97
2022-08-28T16:33:40.214Z,62.84
2022-08-28T16:36:18.569Z,62.15
2022-08-28T16:38:52.895Z,61.92
2022-08-28T16:41:32.124Z,61.69
2022-08-28T16:44:01.998Z,61.99
2022-08-28T16:46:34.818Z,61.56
2022-08-28T16:49:03.097Z,61.69
2022-08-28T16:51:32.056Z,61.44
2022-08-28T16:54:01.754Z,61.00
2022-08-28T16:56:31.305Z,60.75
2022-08-28T16:58:59.474Z,60.70
2022-08-28T17:01:29.583Z,60.70
2022-08-28T17:04:00.886Z,60.58
2022-08-28T17:06:31.219Z,60.69
2022-08-28T17:09:04.358Z,60.33
2022-08-28T17:11:33.990Z,60.07
2022-08-28T17:14:03.128Z,59.77
2022-08-28T17:16:32.941Z,60.09
2022-08-28T17:19:07.842Z,60.30
2022-08-28T17:21:55.091Z,60.38
2022-08-28T17:24:23.519Z,60.40
2022-08-28T17:27:04.621Z,60.36
2022-08-28T17:29:36.354Z,60.02
2022-08-28T17:32:08.016Z,60.41
2022-08-28T17:34:38.785Z,60.29
2022-08-28T17:37:06.754Z,60.50
2022-08-28T17:39:34.743Z,60.03
2022-08-28T17:42:04.092Z,59.99
2022-08-28T17:44:32.179Z,60.11
2022-08-28T17:47:01.071Z,60.28
2022-08-28T17:49:30.133Z,60.53
2022-08-28T17:52:00.727Z,60.17
2022-08-28T17:54:28.872Z,59.35
2022-08-28T17:56:57.705Z,59.25
2022-08-28T17:59:27.903Z,61.28
2022-08-28T18:01:56.134Z,64.98
2022-08-28T18:04:24.874Z,64.94
2022-08-28T18:06:54.631Z,64.14
2022-08-28T18:09:24.127Z,63.20
2022-08-28T18:11:52.975Z,62.65
2022-08-28T18:14:22.355Z,62.28
2022-08-28T18:16:50.429Z,61.70
2022-08-28T18:19:19.953Z,61.41
2022-08-28T18:21:48.016Z,61.07
2022-08-28T18:24:16.884Z,60.82
2022-08-28T18:26:45.345Z,60.88
2022-08-28T18:29:14.422Z,60.66
2022-08-28T18:31:43.757Z,60.83
2022-08-28T18:34:12.024Z,60.69
2022-08-28T18:36:42.161Z,60.51
2022-08-28T18:39:10.369Z,60.55
2022-08-28T18:41:43.492Z,60.40
2022-08-28T18:44:16.145Z,60.31
2022-08-28T18:46:45.105Z,60.35
2022-08-28T18:49:13.364Z,60.08
2022-08-28T18:51:44.209Z,60.24
2022-08-28T18:54:18.600Z,60.25
2022-08-28T18:56:48.325Z,60.24
2022-08-28T18:59:24.745Z,60.66
2022-08-28T19:01:53.284Z,60.98
2022-08-28T19:04:23.050Z,60.68
2022-08-28T19:06:52.782Z,60.58
2022-08-28T19:09:21.515Z,60.48
2022-08-28T19:11:51.841Z,60.18
2022-08-28T19:14:20.280Z,60.26
2022-08-28T19:16:49.625Z,60.04
2022-08-28T19:19:18.711Z,59.86
2022-08-28T19:21:49.081Z,60.12
2022-08-28T19:24:20.906Z,60.01
2022-08-28T19:26:52.016Z,60.50
2022-08-28T19:29:20.794Z,60.25
2022-08-28T19:31:49.103Z,60.06
2022-08-28T19:34:17.315Z,60.03
2022-08-28T19:36:46.517Z,60.13
2022-08-28T19:39:18.375Z,60.16
2022-08-28T19:41:49.249Z,59.93
2022-08-28T19:44:17.277Z,60.11
2022-08-28T19:46:47.248Z,60.28
2022-08-28T19:49:15.702Z,60.65
2022-08-28T19:51:45.034Z,60.48
2022-08-28T19:54:15.022Z,60.57
2022-08-28T19:56:43.950Z,60.41
2022-08-28T19:59:12.710Z,60.28
2022-08-28T20:01:45.448Z,59.93
2022-08-28T20:04:17.549Z,59.93
2022-08-28T20:06:46.264Z,59.57
2022-08-28T20:09:17.657Z,58.73
2022-08-28T20:11:47.032Z,59.17
2022-08-28T20:14:19.957Z,60.83
2022-08-28T20:16:50.869Z,65.24
2022-08-28T20:19:19.929Z,64.85
2022-08-28T20:21:49.959Z,62.87
2022-08-28T20:24:22.216Z,61.51
2022-08-28T20:26:51.175Z,60.66
2022-08-28T20:29:19.901Z,60.26
2022-08-28T20:31:48.346Z,59.75
2022-08-28T20:34:18.763Z,58.23
2022-08-28T20:36:46.817Z,59.57
2022-08-28T20:39:15.549Z,62.96
2022-08-28T20:41:44.481Z,63.10
2022-08-28T20:44:14.466Z,61.77
2022-08-28T20:46:42.970Z,60.47
2022-08-28T20:49:12.407Z,60.08
2022-08-28T20:51:56.471Z,58.91
2022-08-28T20:54:29.412Z,58.59
2022-08-28T20:56:59.496Z,61.26
2022-08-28T20:59:29.669Z,64.48
2022-08-28T21:02:11.055Z,64.38
2022-08-28T21:04:41.500Z,61.87
2022-08-28T21:07:10.228Z,60.81
2022-08-28T21:10:03.829Z,60.15
2022-08-28T21:12:27.306Z,58.41
2022-08-28T21:14:55.272Z,59.22
2022-08-28T21:17:30.167Z,61.05
2022-08-28T21:20:00.628Z,64.55
2022-08-28T21:22:30.041Z,64.48
2022-08-28T21:24:59.127Z,61.79
2022-08-28T21:27:27.319Z,60.47
2022-08-28T21:29:59.551Z,59.64
2022-08-28T21:32:28.777Z,58.31
2022-08-28T21:34:56.743Z,59.24
2022-08-28T21:37:24.758Z,61.54
2022-08-28T21:39:53.816Z,64.50
2022-08-28T21:42:25.144Z,63.19
2022-08-28T21:44:54.550Z,61.42
2022-08-28T21:47:23.433Z,60.65
2022-08-28T21:49:53.309Z,59.35
2022-08-28T21:52:24.396Z,57.92
2022-08-28T21:55:00.556Z,59.68
2022-08-28T21:57:29.660Z,60.59
2022-08-28T21:59:58.693Z,65.26
2022-08-28T22:02:26.901Z,64.29
2022-08-28T22:04:54.909Z,62.46
2022-08-28T22:07:22.844Z,61.67
2022-08-28T22:09:51.499Z,60.76
2022-08-28T22:12:19.530Z,59.75
2022-08-28T22:14:47.441Z,58.24
2022-08-28T22:17:15.902Z,58.30
2022-08-28T22:19:46.421Z,60.03
2022-08-28T22:22:34.066Z,64.00
2022-08-28T22:25:02.205Z,63.95
2022-08-28T22:27:34.686Z,61.93
2022-08-28T22:30:03.514Z,60.79
2022-08-28T22:32:31.653Z,59.73
2022-08-28T22:34:59.624Z,58.34
2022-08-28T22:37:27.923Z,59.11
2022-08-28T22:39:55.918Z,61.24
2022-08-28T22:42:23.839Z,64.75
2022-08-28T22:44:51.819Z,64.56
2022-08-28T22:47:19.811Z,62.81
2022-08-28T22:49:47.826Z,60.84
2022-08-28T22:52:16.914Z,58.93
2022-08-28T22:54:47.069Z,58.13
2022-08-28T22:57:20.610Z,60.15
2022-08-28T22:59:49.719Z,64.59
2022-08-28T23:02:19.433Z,64.57
2022-08-28T23:04:51.312Z,61.97
2022-08-28T23:07:20.484Z,60.19
2022-08-28T23:09:48.415Z,58.68
2022-08-28T23:12:16.931Z,58.45
2022-08-28T23:14:48.370Z,60.64
2022-08-28T23:17:17.612Z,64.38
2022-08-28T23:19:48.419Z,64.72
2022-08-28T23:22:18.253Z,62.23
2022-08-28T23:24:46.963Z,60.65
2022-08-28T23:27:35.228Z,59.70
2022-08-28T23:30:06.811Z,57.63
2022-08-28T23:32:34.940Z,58.59
2022-08-28T23:35:07.093Z,60.41
2022-08-28T23:37:36.548Z,64.26
2022-08-28T23:40:12.255Z,63.57
2022-08-28T23:42:40.360Z,60.73
2022-08-28T23:45:09.029Z,59.10
2022-08-28T23:47:40.365Z,56.76
2022-08-28T23:50:13.586Z,57.57
2022-08-28T23:52:43.045Z,59.15
2022-08-28T23:55:13.492Z,60.50
2022-08-28T23:57:41.485Z,65.05
